Time;durP1;ratioP1;P1;durP2;ratioP2;P2;SDS_P1;SDS_P2;PMS_P1;PMS_P2;Temp;Humidity;BMP_temperature;BMP_pressure;BME280_temperature;BME280_humidity;BME280_pressure;Samples;Min_cycle;Max_cycle;Signal;HPM_P1;HPM_P2
2021/11/05 01:22:24;;;;;;;61.15;44.70;;;;;;;;;;5013927;28;20307;-85
2021/11/05 06:37:41;;;;;;;44.13;37.40;;;;;;;;;;5018547;28;20533;-86
2021/11/05 07:16:56;;;;;;;38.70;33.88;;;;;;;;;;5459211;22;20292;-91
2021/11/05 07:19:25;;;;;;;40.85;34.67;;;;;;;;;;5059212;28;20230;-91
2021/11/05 07:21:59;;;;;;;38.47;34.08;;;;;;;;;;5077030;28;20230;-91
2021/11/05 07:24:27;;;;;;;35.90;31.77;;;;;;;;;;5076781;28;20275;-91
2021/11/05 07:26:55;;;;;;;40.33;33.23;;;;;;;;;;5076856;28;20453;-91
2021/11/05 07:29:25;;;;;;;40.47;34.00;;;;;;;;;;5077246;28;20445;-91
2021/11/05 07:31:53;;;;;;;41.22;33.97;;;;;;;;;;5076959;28;20277;-92
2021/11/05 07:34:22;;;;;;;41.88;34.83;;;;;;;;;;5076623;28;20225;-91
2021/11/05 07:36:50;;;;;;;37.90;31.25;;;;;;;;;;5077019;28;20572;-91
2021/11/05 07:39:17;;;;;;;44.25;34.38;;;;;;;;;;5075954;28;20227;-92
2021/11/05 07:41:45;;;;;;;37.83;32.28;;;;;;;;;;5042212;28;20206;-91
2021/11/05 07:44:12;;;;;;;42.30;34.05;;;;;;;;;;5076659;28;20206;-91
2021/11/05 07:46:41;;;;;;;42.33;32.80;;;;;;;;;;5076891;28;20191;-91
2021/11/05 07:49:08;;;;;;;34.80;31.02;;;;;;;;;;5087793;28;20214;-88
2021/11/05 07:51:37;;;;;;;38.53;33.17;;;;;;;;;;5078043;28;20250;-88
2021/11/05 07:54:07;;;;;;;39.55;34.33;;;;;;;;;;5076537;28;20190;-89
2021/11/05 07:56:34;;;;;;;34.10;29.88;;;;;;;;;;5066885;28;20194;-86
2021/11/05 07:59:02;;;;;;;36.30;32.40;;;;;;;;;;5075334;28;20234;-87
2021/11/05 08:01:29;;;;;;;34.95;30.42;;;;;;;;;;5075864;28;20210;-87
2021/11/05 08:03:56;;;;;;;39.03;31.93;;;;;;;;;;5075936;28;20283;-86
2021/11/05 08:06:24;;;;;;;47.65;34.35;;;;;;;;;;5075546;28;20464;-87
2021/11/05 08:08:53;;;;;;;49.65;32.38;;;;;;;;;;5075679;28;20211;-86
2021/11/05 08:11:20;;;;;;;39.95;30.63;;;;;;;;;;5075724;28;20203;-87
2021/11/05 08:13:47;;;;;;;34.97;30.02;;;;;;;;;;5075834;28;20198;-86
2021/11/05 08:16:15;;;;;;;39.30;31.50;;;;;;;;;;5071488;28;20228;-85
2021/11/05 08:18:43;;;;;;;34.80;31.20;;;;;;;;;;5055363;28;20507;-86
2021/11/05 08:21:10;;;;;;;34.97;30.98;;;;;;;;;;5066802;28;20461;-91
2021/11/05 08:23:37;;;;;;;35.28;31.48;;;;;;;;;;5075780;28;20264;-94
2021/11/05 08:26:07;;;;;;;35.47;31.70;;;;;;;;;;5057742;28;20211;-93
2021/11/05 08:28:34;;;;;;;35.80;32.10;;;;;;;;;;5068427;28;20448;-90
2021/11/05 08:31:02;;;;;;;36.33;32.20;;;;;;;;;;5076077;28;20427;-93
2021/11/05 08:33:29;;;;;;;36.80;30.57;;;;;;;;;;5072511;22;20806;-92
2021/11/05 08:35:57;;;;;;;34.28;30.17;;;;;;;;;;5015712;28;20839;-87
2021/11/05 08:38:25;;;;;;;36.50;31.30;;;;;;;;;;5018465;28;20220;-92
2021/11/05 08:40:54;;;;;;;35.53;31.75;;;;;;;;;;5016653;28;20216;-89
2021/11/05 08:43:24;;;;;;;35.42;32.08;;;;;;;;;;5015706;28;20207;-88
2021/11/05 08:45:51;;;;;;;35.40;30.88;;;;;;;;;;5015524;28;20201;-89
2021/11/05 08:48:19;;;;;;;36.58;31.15;;;;;;;;;;5016052;28;20200;-88
2021/11/05 08:50:47;;;;;;;36.67;32.43;;;;;;;;;;5016132;28;20204;-87
2021/11/05 08:53:15;;;;;;;38.70;31.23;;;;;;;;;;5016409;28;20444;-89
2021/11/05 08:55:42;;;;;;;39.10;31.10;;;;;;;;;;5015572;28;20189;-88
2021/11/05 08:58:10;;;;;;;34.03;30.37;;;;;;;;;;5014924;28;20207;-88
2021/11/05 09:00:39;;;;;;;32.30;28.80;;;;;;;;;;5011383;28;20451;-87
2021/11/05 09:03:07;;;;;;;33.83;30.33;;;;;;;;;;5014025;28;20203;-90
2021/11/05 09:05:35;;;;;;;37.50;31.50;;;;;;;;;;5015497;28;20419;-89
2021/11/05 09:08:03;;;;;;;38.35;31.00;;;;;;;;;;5015784;28;20871;-90
2021/11/05 09:10:30;;;;;;;32.63;29.55;;;;;;;;;;5015155;28;20303;-90
2021/11/05 09:12:58;;;;;;;37.13;30.90;;;;;;;;;;5011211;28;20334;-89
2021/11/05 09:15:27;;;;;;;33.75;30.15;;;;;;;;;;5014737;28;20593;-90
2021/11/05 09:17:56;;;;;;;33.40;30.15;;;;;;;;;;4995149;28;20316;-90
2021/11/05 09:20:24;;;;;;;31.42;28.38;;;;;;;;;;4996158;28;20228;-89
2021/11/05 09:22:52;;;;;;;33.53;30.13;;;;;;;;;;4995818;28;20274;-89
2021/11/05 09:25:19;;;;;;;38.78;29.17;;;;;;;;;;4995992;28;20613;-89
2021/11/05 09:27:47;;;;;;;30.80;27.77;;;;;;;;;;4996574;28;20195;-89
2021/11/05 09:30:15;;;;;;;32.20;29.10;;;;;;;;;;4996841;28;20440;-89
2021/11/05 09:32:43;;;;;;;30.13;27.30;;;;;;;;;;4997943;28;20205;-90
2021/11/05 09:35:12;;;;;;;30.80;26.97;;;;;;;;;;4997421;28;20243;-88
2021/11/05 09:37:41;;;;;;;31.23;28.13;;;;;;;;;;4997528;28;20468;-89
2021/11/05 09:40:09;;;;;;;31.50;28.27;;;;;;;;;;4999295;28;20492;-88
2021/11/05 09:42:38;;;;;;;30.88;27.98;;;;;;;;;;4998700;28;20551;-88
2021/11/05 09:45:05;;;;;;;29.65;26.55;;;;;;;;;;4996983;28;20189;-87
2021/11/05 09:47:33;;;;;;;28.93;26.27;;;;;;;;;;4995793;28;20569;-87
2021/11/05 09:50:01;;;;;;;29.65;26.42;;;;;;;;;;5001514;28;20419;-86
2021/11/05 09:52:30;;;;;;;28.57;25.97;;;;;;;;;;4995432;28;20189;-87
2021/11/05 09:54:59;;;;;;;31.08;27.40;;;;;;;;;;5000621;28;20412;-90
2021/11/05 09:57:26;;;;;;;28.77;26.05;;;;;;;;;;5004434;28;20194;-90
2021/11/05 09:59:56;;;;;;;30.50;27.33;;;;;;;;;;4994337;28;20233;-87
2021/11/05 10:02:24;;;;;;;30.67;27.60;;;;;;;;;;4996014;28;20837;-87
2021/11/05 10:04:51;;;;;;;29.30;26.70;;;;;;;;;;4995464;28;20448;-93
2021/11/05 10:07:19;;;;;;;32.03;28.87;;;;;;;;;;4995155;28;20466;-87
2021/11/05 10:09:52;;;;;;;29.30;26.50;;;;;;;;;;4994506;28;20440;-87
2021/11/05 10:12:21;;;;;;;29.02;26.33;;;;;;;;;;4998159;28;20409;-88
2021/11/05 10:14:56;;;;;;;29.87;27.03;;;;;;;;;;4996944;28;20256;-88
2021/11/05 10:17:24;;;;;;;28.63;25.97;;;;;;;;;;4997954;28;20450;-87
2021/11/05 10:19:53;;;;;;;29.83;26.97;;;;;;;;;;5000743;28;20504;-89
2021/11/05 10:22:33;;;;;;;30.23;27.20;;;;;;;;;;4987741;28;20426;-90
2021/11/05 10:25:16;;;;;;;30.97;27.70;;;;;;;;;;4980270;28;20431;-83
2021/11/05 10:27:45;;;;;;;29.58;26.73;;;;;;;;;;4984758;28;20432;-86
2021/11/05 10:30:12;;;;;;;28.60;25.73;;;;;;;;;;4983888;28;20214;-90
2021/11/05 10:32:41;;;;;;;29.73;26.93;;;;;;;;;;4984672;28;20494;-86
2021/11/05 10:35:13;;;;;;;29.77;27.02;;;;;;;;;;4982058;28;20474;-86
2021/11/05 10:37:41;;;;;;;30.17;26.92;;;;;;;;;;4982759;28;20201;-80
2021/11/05 10:40:11;;;;;;;27.83;25.43;;;;;;;;;;4983050;28;20227;-88
2021/11/05 10:42:39;;;;;;;29.85;26.85;;;;;;;;;;4981064;28;20435;-88
2021/11/05 10:45:15;;;;;;;31.63;28.43;;;;;;;;;;4979199;28;20635;-88
2021/11/05 10:48:02;;;;;;;29.90;27.00;;;;;;;;;;4978978;28;20428;-89
2021/11/05 10:50:32;;;;;;;29.40;26.90;;;;;;;;;;4989897;28;20220;-88
2021/11/05 10:53:01;;;;;;;32.73;29.43;;;;;;;;;;5018940;28;20430;-88
2021/11/05 10:55:39;;;;;;;31.27;28.23;;;;;;;;;;5018576;28;20823;-88
2021/11/05 10:58:07;;;;;;;29.87;27.20;;;;;;;;;;5022250;28;20434;-89
2021/11/05 11:00:39;;;;;;;29.23;26.65;;;;;;;;;;5018955;28;20579;-89
2021/11/05 11:03:10;;;;;;;31.93;29.00;;;;;;;;;;5018819;28;20204;-88
2021/11/05 11:05:40;;;;;;;29.07;26.00;;;;;;;;;;5016621;28;20433;-89
2021/11/05 11:08:11;;;;;;;29.33;26.73;;;;;;;;;;5018167;28;20451;-90
2021/11/05 11:10:39;;;;;;;31.30;28.60;;;;;;;;;;5018175;28;20430;-89
2021/11/05 11:13:27;;;;;;;30.37;27.40;;;;;;;;;;5018188;28;20528;-89
2021/11/05 11:15:56;;;;;;;30.53;27.73;;;;;;;;;;5017849;28;20520;-89
2021/11/05 11:18:23;;;;;;;31.07;28.17;;;;;;;;;;5016591;28;20495;-88
2021/11/05 11:20:50;;;;;;;31.50;28.80;;;;;;;;;;5018617;28;20502;-89
2021/11/05 11:23:18;;;;;;;31.35;28.45;;;;;;;;;;5018687;28;20811;-89
2021/11/05 11:25:45;;;;;;;30.87;28.20;;;;;;;;;;5018609;28;20197;-89
2021/11/05 11:28:13;;;;;;;32.27;29.03;;;;;;;;;;5027718;22;20974;-91
2021/11/05 11:30:41;;;;;;;34.50;29.70;;;;;;;;;;5009888;28;20841;-88
2021/11/05 11:33:10;;;;;;;31.77;28.87;;;;;;;;;;5017967;28;20452;-88
2021/11/05 11:35:39;;;;;;;29.30;26.63;;;;;;;;;;5018290;28;20425;-88
2021/11/05 11:38:07;;;;;;;30.20;27.40;;;;;;;;;;5029377;28;20949;-81
2021/11/05 11:40:34;;;;;;;29.27;26.73;;;;;;;;;;5030798;28;20498;-89
2021/11/05 11:43:02;;;;;;;28.47;26.23;;;;;;;;;;5024614;28;20875;-92
2021/11/05 11:45:29;;;;;;;29.73;26.73;;;;;;;;;;5016268;28;20455;-91
2021/11/05 11:47:59;;;;;;;31.53;28.67;;;;;;;;;;5016631;28;20464;-89
2021/11/05 11:50:28;;;;;;;29.00;26.60;;;;;;;;;;5016583;28;20452;-89
2021/11/05 11:53:00;;;;;;;28.33;25.77;;;;;;;;;;5016830;28;20892;-89
2021/11/05 11:55:30;;;;;;;30.80;28.10;;;;;;;;;;5015042;28;20223;-89
2021/11/05 11:58:11;;;;;;;30.13;27.33;;;;;;;;;;5016555;28;20530;-88
2021/11/05 12:00:38;;;;;;;28.60;26.17;;;;;;;;;;5015662;28;20473;-86
2021/11/05 12:03:07;;;;;;;31.80;28.70;;;;;;;;;;5011069;28;20977;-86
2021/11/05 12:05:52;;;;;;;30.60;27.87;;;;;;;;;;5015646;28;20811;-88
2021/11/05 12:08:22;;;;;;;28.77;26.17;;;;;;;;;;5016014;28;20525;-88
2021/11/05 12:10:51;;;;;;;29.53;26.73;;;;;;;;;;5015479;28;20929;-85
2021/11/05 12:13:37;;;;;;;30.23;27.40;;;;;;;;;;5015797;28;20444;-87
2021/11/05 12:16:25;;;;;;;30.27;27.63;;;;;;;;;;5015436;28;20449;-91
2021/11/05 12:19:11;;;;;;;32.27;28.77;;;;;;;;;;5015902;28;20410;-89
2021/11/05 12:21:40;;;;;;;30.77;27.80;;;;;;;;;;5016420;28;20511;-84
2021/11/05 12:24:36;;;;;;;31.53;28.83;;;;;;;;;;5016381;28;20448;-86
2021/11/05 12:27:14;;;;;;;29.33;26.73;;;;;;;;;;5013447;28;20435;-85
2021/11/05 12:30:12;;;;;;;29.35;26.95;;;;;;;;;;4995964;28;20454;-88
2021/11/05 12:32:40;;;;;;;29.93;27.33;;;;;;;;;;4995738;28;20193;-84
2021/11/05 12:35:24;;;;;;;31.90;28.57;;;;;;;;;;4995144;28;20427;-84
2021/11/05 12:38:10;;;;;;;30.83;28.03;;;;;;;;;;4996660;28;20443;-88
2021/11/05 12:40:42;;;;;;;29.80;27.30;;;;;;;;;;4996103;28;20488;-88
2021/11/05 12:43:31;;;;;;;28.80;26.30;;;;;;;;;;4995202;28;20435;-87
2021/11/05 12:46:00;;;;;;;30.50;27.27;;;;;;;;;;4996924;28;20480;-89
2021/11/05 12:48:48;;;;;;;28.83;26.53;;;;;;;;;;4995955;28;20444;-88
2021/11/05 12:51:19;;;;;;;29.60;27.10;;;;;;;;;;4991522;28;20489;-88
2021/11/05 12:53:55;;;;;;;29.37;26.63;;;;;;;;;;4996278;28;20458;-88
2021/11/05 12:56:24;;;;;;;29.73;27.10;;;;;;;;;;4995734;28;20452;-89
2021/11/05 12:58:51;;;;;;;32.00;29.10;;;;;;;;;;4995489;28;20431;-92
2021/11/05 13:01:20;;;;;;;30.93;27.67;;;;;;;;;;4995591;28;20495;-91
2021/11/05 13:03:47;;;;;;;31.60;28.80;;;;;;;;;;4995545;28;20448;-92
2021/11/05 13:06:15;;;;;;;32.97;29.70;;;;;;;;;;4977901;28;20482;-92
2021/11/05 13:08:43;;;;;;;30.53;27.93;;;;;;;;;;4995938;28;20502;-91
2021/11/05 13:11:12;;;;;;;31.47;28.87;;;;;;;;;;4995234;28;20452;-92
2021/11/05 13:13:53;;;;;;;32.23;29.30;;;;;;;;;;4995277;28;20448;-92
2021/11/05 13:16:20;;;;;;;29.53;26.97;;;;;;;;;;4994949;28;20509;-92
2021/11/05 13:18:48;;;;;;;31.80;29.20;;;;;;;;;;4995472;28;20451;-91
2021/11/05 13:21:19;;;;;;;32.07;28.73;;;;;;;;;;4977650;28;20502;-92
2021/11/05 13:23:46;;;;;;;30.20;27.07;;;;;;;;;;4995890;28;20475;-92
2021/11/05 13:26:14;;;;;;;28.10;25.80;;;;;;;;;;4977828;28;20452;-91
2021/11/05 13:28:46;;;;;;;30.40;27.90;;;;;;;;;;5007960;28;20483;-91
2021/11/05 13:31:14;;;;;;;30.90;27.87;;;;;;;;;;5014807;28;20444;-91
2021/11/05 13:33:42;;;;;;;31.80;28.80;;;;;;;;;;5014854;28;20430;-90
2021/11/05 13:36:10;;;;;;;31.70;29.00;;;;;;;;;;5010030;28;20415;-91
2021/11/05 13:38:43;;;;;;;31.97;28.83;;;;;;;;;;5014093;28;20807;-84
2021/11/05 13:41:11;;;;;;;30.77;28.07;;;;;;;;;;5012292;28;20473;-83
2021/11/05 13:43:39;;;;;;;30.93;27.97;;;;;;;;;;5013546;28;20419;-84
2021/11/05 13:46:10;;;;;;;29.20;26.70;;;;;;;;;;5008145;28;21072;-83
2021/11/05 13:48:38;;;;;;;29.57;26.57;;;;;;;;;;5013658;28;20441;-86
2021/11/05 13:51:07;;;;;;;31.57;28.97;;;;;;;;;;5010244;28;20456;-96
2021/11/05 13:53:36;;;;;;;28.10;25.97;;;;;;;;;;5019774;28;20937;-96
2021/11/05 13:56:12;;;;;;;28.17;25.90;;;;;;;;;;5020680;28;20546;-94
2021/11/05 13:58:40;;;;;;;28.70;26.40;;;;;;;;;;5015379;28;20461;-96
2021/11/05 14:01:16;;;;;;;28.30;25.90;;;;;;;;;;5018665;28;20531;-89
2021/11/05 14:03:44;;;;;;;27.80;25.37;;;;;;;;;;5006971;28;20456;-86
2021/11/05 14:06:12;;;;;;;28.83;26.57;;;;;;;;;;5022098;28;20488;-94
2021/11/05 14:08:49;;;;;;;26.83;24.67;;;;;;;;;;5017297;28;20448;-96
2021/11/05 14:11:16;;;;;;;27.77;25.77;;;;;;;;;;5013765;28;20440;-83
2021/11/05 14:13:44;;;;;;;27.40;25.30;;;;;;;;;;5014266;28;20452;-91
2021/11/05 14:16:13;;;;;;;27.10;24.73;;;;;;;;;;5014276;28;20442;-86
2021/11/05 14:18:41;;;;;;;27.30;24.90;;;;;;;;;;5013147;28;20467;-86
2021/11/05 14:21:18;;;;;;;26.73;24.63;;;;;;;;;;5008786;28;20846;-86
2021/11/05 14:23:46;;;;;;;27.67;25.47;;;;;;;;;;5012979;28;20466;-86
2021/11/05 14:26:21;;;;;;;27.60;25.17;;;;;;;;;;5013238;28;20460;-86
2021/11/05 14:29:03;;;;;;;26.77;24.47;;;;;;;;;;5013452;28;20461;-86
2021/11/05 14:31:48;;;;;;;27.07;24.40;;;;;;;;;;5013901;28;20417;-88
2021/11/05 14:34:16;;;;;;;28.10;25.67;;;;;;;;;;5014277;28;20411;-85
2021/11/05 14:36:43;;;;;;;28.23;25.83;;;;;;;;;;5012974;28;20435;-85
2021/11/05 14:39:11;;;;;;;26.87;24.77;;;;;;;;;;5013102;28;20984;-85
2021/11/05 14:41:38;;;;;;;28.10;25.63;;;;;;;;;;5012272;28;20458;-85
2021/11/05 14:44:06;;;;;;;26.97;24.83;;;;;;;;;;5002515;28;20539;-85
2021/11/05 14:46:45;;;;;;;28.80;26.40;;;;;;;;;;4993262;28;20913;-84
2021/11/05 14:49:16;;;;;;;28.10;25.70;;;;;;;;;;4994322;28;20425;-89
2021/11/05 14:51:44;;;;;;;28.03;25.40;;;;;;;;;;4994471;28;20816;-88
2021/11/05 14:54:12;;;;;;;28.93;26.37;;;;;;;;;;4994180;28;20416;-85
2021/11/05 14:56:39;;;;;;;28.10;25.60;;;;;;;;;;4993554;28;20416;-85
2021/11/05 14:59:07;;;;;;;27.27;24.93;;;;;;;;;;4992353;28;20424;-85
2021/11/05 15:01:34;;;;;;;30.23;27.53;;;;;;;;;;4994816;28;20455;-96
2021/11/05 15:04:08;;;;;;;28.90;26.47;;;;;;;;;;4978984;28;20411;-93
2021/11/05 15:06:40;;;;;;;29.20;26.97;;;;;;;;;;4997971;28;20528;-86
2021/11/05 15:09:08;;;;;;;29.23;26.57;;;;;;;;;;4996992;28;20449;-85
2021/11/05 15:11:36;;;;;;;28.17;25.50;;;;;;;;;;4997420;28;20431;-89
2021/11/05 15:14:03;;;;;;;27.33;24.83;;;;;;;;;;4997791;28;20762;-86
2021/11/05 15:16:31;;;;;;;28.83;26.33;;;;;;;;;;4997467;28;20463;-93
2021/11/05 15:18:59;;;;;;;29.90;27.17;;;;;;;;;;4979588;28;20453;-85
2021/11/05 15:21:28;;;;;;;29.40;27.10;;;;;;;;;;4996612;28;20474;-84
2021/11/05 15:23:56;;;;;;;29.33;26.83;;;;;;;;;;4996106;28;20448;-84
2021/11/05 15:26:24;;;;;;;28.47;26.10;;;;;;;;;;4996313;28;20449;-84
2021/11/05 15:28:52;;;;;;;27.70;25.43;;;;;;;;;;4995877;28;20480;-84
2021/11/05 15:31:20;;;;;;;28.63;26.07;;;;;;;;;;4995962;28;20503;-84
2021/11/05 15:33:48;;;;;;;29.07;26.70;;;;;;;;;;4996268;28;20536;-84
2021/11/05 15:36:16;;;;;;;29.60;27.10;;;;;;;;;;4996185;28;20472;-84
2021/11/05 15:38:45;;;;;;;27.63;25.30;;;;;;;;;;4995825;28;20472;-83
2021/11/05 15:41:13;;;;;;;29.03;26.63;;;;;;;;;;4996165;28;20576;-84
2021/11/05 15:43:41;;;;;;;28.73;26.03;;;;;;;;;;4995959;28;20532;-84
2021/11/05 15:46:09;;;;;;;31.60;28.60;;;;;;;;;;5011766;28;20423;-84
2021/11/05 15:48:37;;;;;;;29.23;26.20;;;;;;;;;;5015704;28;20961;-87
2021/11/05 15:51:05;;;;;;;29.23;26.97;;;;;;;;;;5015953;28;20880;-86
2021/11/05 15:53:35;;;;;;;30.27;27.50;;;;;;;;;;5016142;28;20519;-86
2021/11/05 15:56:04;;;;;;;30.80;28.10;;;;;;;;;;5016029;28;20801;-86
2021/11/05 15:58:31;;;;;;;30.13;27.33;;;;;;;;;;5016231;28;20444;-86
2021/11/05 16:00:59;;;;;;;31.30;28.40;;;;;;;;;;5016004;28;20511;-87
2021/11/05 16:03:27;;;;;;;32.00;29.10;;;;;;;;;;5013697;28;20438;-87
2021/11/05 16:05:54;;;;;;;32.10;29.27;;;;;;;;;;5009090;28;20457;-86
2021/11/05 16:08:22;;;;;;;32.10;28.90;;;;;;;;;;5015860;28;20433;-86
2021/11/05 16:10:49;;;;;;;31.73;29.00;;;;;;;;;;5015762;28;20529;-85
2021/11/05 16:13:19;;;;;;;30.80;27.93;;;;;;;;;;5015440;28;20440;-86
2021/11/05 16:15:46;;;;;;;31.57;28.73;;;;;;;;;;5015145;28;20457;-86
2021/11/05 16:18:14;;;;;;;34.80;29.90;;;;;;;;;;5014617;28;20418;-85
2021/11/05 16:20:41;;;;;;;32.00;28.80;;;;;;;;;;5015108;28;20448;-85
2021/11/05 16:23:09;;;;;;;30.13;27.53;;;;;;;;;;5015029;28;20439;-85
2021/11/05 16:25:37;;;;;;;30.67;27.43;;;;;;;;;;5015266;28;20499;-86
2021/11/05 16:28:05;;;;;;;32.40;29.47;;;;;;;;;;5014805;28;20595;-86
2021/11/05 16:30:34;;;;;;;33.33;30.40;;;;;;;;;;5015311;28;20403;-85
2021/11/05 16:33:02;;;;;;;31.17;28.07;;;;;;;;;;5014814;28;20763;-85
2021/11/05 16:35:31;;;;;;;35.63;31.20;;;;;;;;;;5014948;28;20447;-86
2021/11/05 16:37:59;;;;;;;32.70;29.60;;;;;;;;;;5014844;28;20453;-86
2021/11/05 16:40:26;;;;;;;33.80;30.17;;;;;;;;;;5014810;28;20817;-86
2021/11/05 16:42:55;;;;;;;35.30;31.60;;;;;;;;;;5014731;28;20491;-85
2021/11/05 16:45:22;;;;;;;35.83;32.23;;;;;;;;;;4999160;28;20464;-85
2021/11/05 16:47:53;;;;;;;36.10;32.33;;;;;;;;;;4994899;28;20450;-86
2021/11/05 16:50:21;;;;;;;37.00;33.20;;;;;;;;;;4995433;28;20445;-85
2021/11/05 16:52:48;;;;;;;37.60;33.63;;;;;;;;;;4994733;28;20411;-85
2021/11/05 16:55:16;;;;;;;39.73;35.60;;;;;;;;;;4994842;28;20455;-86
2021/11/05 16:57:44;;;;;;;40.77;36.00;;;;;;;;;;4994384;28;20959;-86
2021/11/05 17:00:13;;;;;;;37.63;33.90;;;;;;;;;;4995191;28;20420;-87
2021/11/05 17:02:41;;;;;;;41.67;36.30;;;;;;;;;;4995044;28;20920;-87
2021/11/05 17:05:10;;;;;;;37.30;33.47;;;;;;;;;;4977597;28;20457;-85
2021/11/05 17:07:38;;;;;;;36.37;32.97;;;;;;;;;;4994633;28;20428;-86
2021/11/05 17:10:06;;;;;;;38.27;34.43;;;;;;;;;;4995331;28;20443;-86
2021/11/05 17:12:33;;;;;;;38.13;33.77;;;;;;;;;;4994677;28;20904;-85
2021/11/05 17:15:01;;;;;;;39.33;34.70;;;;;;;;;;5002082;28;20994;-86
2021/11/05 17:17:29;;;;;;;42.33;36.30;;;;;;;;;;5014152;28;20783;-85
2021/11/05 17:19:56;;;;;;;39.30;35.30;;;;;;;;;;5014347;28;20422;-84
2021/11/05 17:22:25;;;;;;;44.30;39.60;;;;;;;;;;5014399;28;20463;-85
2021/11/05 17:24:53;;;;;;;42.77;37.03;;;;;;;;;;5014545;28;20550;-89
2021/11/05 17:27:20;;;;;;;43.47;37.23;;;;;;;;;;5014041;28;20426;-86
2021/11/05 17:29:48;;;;;;;48.70;38.33;;;;;;;;;;5014271;28;20447;-86
2021/11/05 17:32:17;;;;;;;43.10;38.70;;;;;;;;;;5014343;28;20422;-86
2021/11/05 17:34:44;;;;;;;55.00;37.40;;;;;;;;;;5013627;28;20464;-85
2021/11/05 17:37:11;;;;;;;44.10;36.37;;;;;;;;;;5013873;28;20451;-86
2021/11/05 17:39:41;;;;;;;43.53;38.83;;;;;;;;;;5013864;28;20422;-86
2021/11/05 17:42:09;;;;;;;42.63;37.87;;;;;;;;;;5013771;28;21043;-85
2021/11/05 17:44:37;;;;;;;46.57;37.40;;;;;;;;;;5005443;28;20422;-85
2021/11/05 17:47:05;;;;;;;43.83;38.93;;;;;;;;;;5013936;28;20443;-86
2021/11/05 17:49:32;;;;;;;42.03;37.70;;;;;;;;;;5013380;28;20430;-84
2021/11/05 17:52:00;;;;;;;44.53;37.30;;;;;;;;;;5012893;28;20446;-86
2021/11/05 17:54:27;;;;;;;40.63;36.40;;;;;;;;;;5014110;28;20427;-85
2021/11/05 17:56:56;;;;;;;40.57;36.07;;;;;;;;;;5013681;28;20459;-85
2021/11/05 17:59:23;;;;;;;44.43;37.40;;;;;;;;;;5013739;28;20442;-84
2021/11/05 18:01:51;;;;;;;40.83;36.73;;;;;;;;;;5013570;28;20449;-86
2021/11/05 18:04:22;;;;;;;41.17;36.27;;;;;;;;;;5014737;28;20426;-86
2021/11/05 18:06:50;;;;;;;42.50;35.43;;;;;;;;;;5014308;28;20886;-85
2021/11/05 18:09:18;;;;;;;43.47;36.23;;;;;;;;;;5014100;28;20718;-85
2021/11/05 18:11:45;;;;;;;43.57;38.43;;;;;;;;;;5013814;28;20779;-86
2021/11/05 18:14:15;;;;;;;46.33;39.23;;;;;;;;;;5006969;28;20475;-86
2021/11/05 18:16:43;;;;;;;42.90;37.77;;;;;;;;;;4992321;28;20416;-85
2021/11/05 18:19:11;;;;;;;51.80;40.27;;;;;;;;;;4993784;28;20440;-85
2021/11/05 18:21:38;;;;;;;57.20;39.87;;;;;;;;;;4977103;28;20511;-86
2021/11/05 18:24:06;;;;;;;45.93;39.70;;;;;;;;;;4994499;28;20430;-84
2021/11/05 18:26:34;;;;;;;44.13;37.07;;;;;;;;;;4993976;28;20434;-85
2021/11/05 18:29:01;;;;;;;46.40;40.53;;;;;;;;;;4993492;28;20487;-85
2021/11/05 18:31:30;;;;;;;43.73;39.30;;;;;;;;;;4994854;28;20515;-86
2021/11/05 18:33:57;;;;;;;43.43;38.83;;;;;;;;;;4992674;28;20415;-87
2021/11/05 18:36:25;;;;;;;44.80;40.20;;;;;;;;;;4994150;28;20451;-86
2021/11/05 18:38:52;;;;;;;45.60;40.80;;;;;;;;;;4994200;28;20419;-86
2021/11/05 18:41:19;;;;;;;42.83;38.23;;;;;;;;;;4996940;28;20765;-86
2021/11/05 18:43:47;;;;;;;44.50;37.27;;;;;;;;;;4997657;28;20442;-86
2021/11/05 18:46:14;;;;;;;44.13;39.33;;;;;;;;;;4997655;28;20427;-85
2021/11/05 18:48:43;;;;;;;42.73;38.00;;;;;;;;;;4980254;28;20919;-85
2021/11/05 18:51:11;;;;;;;42.03;37.60;;;;;;;;;;4997714;28;20497;-86
2021/11/05 18:53:38;;;;;;;43.00;38.47;;;;;;;;;;4997295;28;20456;-86
2021/11/05 18:56:06;;;;;;;42.93;38.40;;;;;;;;;;4997606;28;20461;-86
2021/11/05 18:58:33;;;;;;;48.93;39.23;;;;;;;;;;4997537;28;20488;-86
2021/11/05 19:01:02;;;;;;;40.03;35.87;;;;;;;;;;4998378;28;20427;-85
2021/11/05 19:03:34;;;;;;;50.83;39.63;;;;;;;;;;4996975;28;20587;-86
2021/11/05 19:06:03;;;;;;;40.27;35.93;;;;;;;;;;4996790;28;20491;-85
2021/11/05 19:08:33;;;;;;;42.23;37.80;;;;;;;;;;4996595;28;20509;-86
2021/11/05 19:11:01;;;;;;;39.67;35.73;;;;;;;;;;4997123;28;20436;-86
2021/11/05 19:13:29;;;;;;;43.77;38.27;;;;;;;;;;4996993;28;20567;-85
2021/11/05 19:15:57;;;;;;;40.77;36.23;;;;;;;;;;5011555;28;20471;-86
2021/11/05 19:18:25;;;;;;;39.50;35.40;;;;;;;;;;5016463;28;20912;-86
2021/11/05 19:20:53;;;;;;;42.00;36.83;;;;;;;;;;5016923;28;20447;-86
2021/11/05 19:23:23;;;;;;;38.40;34.90;;;;;;;;;;5016232;28;20454;-86
2021/11/05 19:25:50;;;;;;;40.73;35.90;;;;;;;;;;5016285;28;20444;-85
2021/11/05 19:28:19;;;;;;;36.92;33.42;;;;;;;;;;5015771;28;20487;-86
2021/11/05 19:30:47;;;;;;;44.15;35.83;;;;;;;;;;5016131;28;20204;-86
2021/11/05 19:33:15;;;;;;;38.85;34.97;;;;;;;;;;5015923;28;20654;-85
2021/11/05 19:35:43;;;;;;;35.90;32.57;;;;;;;;;;5016164;28;20201;-86
2021/11/05 19:38:11;;;;;;;37.97;33.87;;;;;;;;;;5011762;28;20463;-86
2021/11/05 19:40:40;;;;;;;37.47;33.90;;;;;;;;;;5007206;28;20506;-86
2021/11/05 19:43:08;;;;;;;39.37;35.40;;;;;;;;;;5015775;28;20549;-85
2021/11/05 19:45:36;;;;;;;36.70;33.10;;;;;;;;;;5015717;28;20916;-85
2021/11/05 19:48:03;;;;;;;37.70;34.30;;;;;;;;;;5016005;28;20447;-86
2021/11/05 19:50:31;;;;;;;37.20;33.70;;;;;;;;;;5015418;28;20437;-85
2021/11/05 19:52:59;;;;;;;36.03;32.85;;;;;;;;;;5009551;28;20418;-86
2021/11/05 19:55:27;;;;;;;38.33;34.38;;;;;;;;;;5015901;28;20197;-86
2021/11/05 19:57:56;;;;;;;35.73;32.30;;;;;;;;;;5015715;28;20204;-85
2021/11/05 20:00:25;;;;;;;36.90;33.30;;;;;;;;;;5015610;28;20417;-85
2021/11/05 20:02:53;;;;;;;35.95;32.60;;;;;;;;;;5015881;28;20488;-85
2021/11/05 20:05:21;;;;;;;37.87;34.20;;;;;;;;;;5015497;28;20204;-85
2021/11/05 20:07:49;;;;;;;38.05;34.15;;;;;;;;;;5015655;28;20443;-86
2021/11/05 20:10:16;;;;;;;37.87;34.37;;;;;;;;;;5015313;28;20250;-86
2021/11/05 20:12:44;;;;;;;36.73;32.90;;;;;;;;;;5015244;28;20892;-85
2021/11/05 20:15:13;;;;;;;36.78;33.40;;;;;;;;;;5015311;28;20440;-85
2021/11/05 20:17:41;;;;;;;35.70;31.60;;;;;;;;;;5015037;28;20255;-86
2021/11/05 20:20:09;;;;;;;37.90;34.17;;;;;;;;;;5015638;28;20451;-86
2021/11/05 20:22:40;;;;;;;38.13;34.17;;;;;;;;;;5006865;28;20504;-86
2021/11/05 20:25:09;;;;;;;37.58;33.22;;;;;;;;;;5015593;28;20197;-88
2021/11/05 20:27:36;;;;;;;39.22;35.17;;;;;;;;;;5015372;28;20239;-85
2021/11/05 20:30:04;;;;;;;37.83;33.97;;;;;;;;;;5017089;28;20195;-95
2021/11/05 20:32:33;;;;;;;35.03;32.00;;;;;;;;;;5017351;28;20208;-96
2021/11/05 20:35:01;;;;;;;35.10;32.00;;;;;;;;;;5018619;28;20202;-96
2021/11/05 20:37:28;;;;;;;36.10;32.67;;;;;;;;;;5030079;28;20440;-95
2021/11/05 20:39:56;;;;;;;33.83;30.80;;;;;;;;;;5015333;28;20802;-86
2021/11/05 20:42:23;;;;;;;32.85;29.65;;;;;;;;;;5015210;28;21005;-87
2021/11/05 20:44:50;;;;;;;31.98;28.65;;;;;;;;;;5003386;28;20212;-86
2021/11/05 20:47:18;;;;;;;31.10;28.40;;;;;;;;;;4995354;28;20280;-93
2021/11/05 20:49:47;;;;;;;33.95;30.52;;;;;;;;;;4995711;28;20288;-86
2021/11/05 20:52:14;;;;;;;32.47;29.65;;;;;;;;;;4994861;28;20213;-86
2021/11/05 20:54:42;;;;;;;32.42;29.38;;;;;;;;;;4994826;28;20267;-86
2021/11/05 20:57:09;;;;;;;32.17;28.93;;;;;;;;;;4994653;28;20244;-85
2021/11/05 20:59:37;;;;;;;33.50;30.67;;;;;;;;;;4986978;28;20449;-85
2021/11/05 21:02:04;;;;;;;34.50;31.75;;;;;;;;;;4994586;28;20193;-85
2021/11/05 21:04:32;;;;;;;34.88;31.88;;;;;;;;;;4995099;28;20623;-85
2021/11/05 21:07:01;;;;;;;34.28;31.23;;;;;;;;;;4977356;28;20253;-85
2021/11/05 21:09:30;;;;;;;33.47;30.52;;;;;;;;;;4994809;28;20194;-86
2021/11/05 21:11:57;;;;;;;33.65;30.95;;;;;;;;;;4994739;28;20200;-85
2021/11/05 21:14:25;;;;;;;33.83;30.60;;;;;;;;;;4996788;28;20232;-85
2021/11/05 21:16:52;;;;;;;33.77;30.97;;;;;;;;;;5013946;28;20415;-85
2021/11/05 21:19:20;;;;;;;37.22;32.25;;;;;;;;;;5014410;28;20444;-85
2021/11/05 21:21:48;;;;;;;36.93;32.97;;;;;;;;;;5014246;28;20211;-86
2021/11/05 21:24:17;;;;;;;33.73;30.57;;;;;;;;;;5013914;28;20993;-85
2021/11/05 21:26:45;;;;;;;38.77;35.20;;;;;;;;;;5006217;28;20839;-85
2021/11/05 21:29:13;;;;;;;36.80;33.10;;;;;;;;;;5030873;28;20490;-85
2021/11/05 21:31:40;;;;;;;35.53;32.67;;;;;;;;;;5033905;28;20187;-85
2021/11/05 21:34:07;;;;;;;38.17;34.90;;;;;;;;;;5033983;28;20211;-85
2021/11/05 21:36:35;;;;;;;38.23;34.43;;;;;;;;;;5034016;28;20413;-86
2021/11/05 21:39:02;;;;;;;36.60;33.60;;;;;;;;;;5033619;28;20990;-84